FDX358 KMEM-KMCO
Flight info
| Callsign | FDX358 |
|---|---|
| Flight time | 1h 24m |
| Altitude | 39000 |
| Route | BBKNG7 KERMI VLKNN DEEDA GRNCH5 |
| Aircraft | MD11/H-SDE1E2E3FGHIJ2J3J4J5M1RWXY/LB1D1 |
Departure
| Time | 2026-05-07 19:00 |
|---|---|
| Airport | Memphis International Airport (KMEM) |
Arrival
| Time | 2026-05-07 20:24 |
|---|---|
| Airport | Orlando International Airport (KMCO) |
| Time | Latitude | Longitude | Altitude | Speed | Heading |
|---|---|---|---|---|---|
| 2026-05-07 18:08 | 35.06096 | -89.96108 | 333 ft | 0 kts | 2° |
| 2026-05-07 18:42 | 35.06088 | -89.96108 | 333 ft | 4 kts | 2° |
| 2026-05-07 18:42 | 35.06065 | -89.96110 | 333 ft | 4 kts | 352° |
| 2026-05-07 18:42 | 35.06045 | -89.96103 | 333 ft | 4 kts | 308° |
| 2026-05-07 18:42 | 35.06037 | -89.96079 | 333 ft | 4 kts | 272° |
| 2026-05-07 18:43 | 35.06037 | -89.96056 | 333 ft | 0 kts | 272° |
| 2026-05-07 18:48 | 35.06037 | -89.96059 | 333 ft | 2 kts | 272° |
| 2026-05-07 18:49 | 35.06038 | -89.96104 | 333 ft | 8 kts | 272° |
| 2026-05-07 18:49 | 35.06041 | -89.96199 | 338 ft | 14 kts | 272° |
| 2026-05-07 18:49 | 35.06045 | -89.96339 | 338 ft | 18 kts | 272° |
| 2026-05-07 18:49 | 35.06038 | -89.96463 | 333 ft | 12 kts | 245° |
| 2026-05-07 18:50 | 35.05982 | -89.96526 | 333 ft | 10 kts | 214° |
| 2026-05-07 18:50 | 35.05931 | -89.96577 | 334 ft | 9 kts | 235° |
| 2026-05-07 18:50 | 35.05920 | -89.96659 | 334 ft | 12 kts | 270° |
| 2026-05-07 18:50 | 35.05921 | -89.96766 | 334 ft | 13 kts | 271° |
| 2026-05-07 18:51 | 35.05924 | -89.96877 | 334 ft | 13 kts | 272° |
| 2026-05-07 18:51 | 35.05927 | -89.96991 | 338 ft | 14 kts | 272° |
| 2026-05-07 18:51 | 35.05930 | -89.97110 | 337 ft | 14 kts | 272° |
| 2026-05-07 18:51 | 35.05934 | -89.97234 | 338 ft | 15 kts | 272° |
| 2026-05-07 18:52 | 35.05938 | -89.97359 | 334 ft | 15 kts | 272° |
| 2026-05-07 18:52 | 35.05930 | -89.97473 | 337 ft | 11 kts | 238° |
| 2026-05-07 18:52 | 35.05859 | -89.97492 | 337 ft | 12 kts | 176° |
| 2026-05-07 18:52 | 35.05751 | -89.97487 | 336 ft | 19 kts | 180° |
| 2026-05-07 18:53 | 35.05605 | -89.97487 | 333 ft | 24 kts | 179° |
| 2026-05-07 18:53 | 35.05432 | -89.97483 | 333 ft | 25 kts | 179° |
| 2026-05-07 18:53 | 35.05251 | -89.97479 | 332 ft | 26 kts | 179° |
| 2026-05-07 18:53 | 35.05065 | -89.97475 | 332 ft | 27 kts | 179° |
| 2026-05-07 18:54 | 35.04874 | -89.97471 | 332 ft | 28 kts | 179° |
| 2026-05-07 18:54 | 35.04681 | -89.97468 | 333 ft | 28 kts | 179° |
| 2026-05-07 18:54 | 35.04488 | -89.97464 | 333 ft | 28 kts | 178° |
| 2026-05-07 18:54 | 35.04293 | -89.97460 | 334 ft | 28 kts | 178° |
| 2026-05-07 18:55 | 35.04097 | -89.97455 | 333 ft | 28 kts | 179° |
| 2026-05-07 18:55 | 35.03912 | -89.97451 | 334 ft | 26 kts | 179° |
| 2026-05-07 18:55 | 35.03734 | -89.97447 | 331 ft | 25 kts | 179° |
| 2026-05-07 18:55 | 35.03566 | -89.97444 | 332 ft | 23 kts | 179° |
| 2026-05-07 18:56 | 35.03410 | -89.97442 | 332 ft | 22 kts | 179° |
| 2026-05-07 18:56 | 35.03263 | -89.97439 | 332 ft | 20 kts | 179° |
| 2026-05-07 18:56 | 35.03128 | -89.97437 | 333 ft | 18 kts | 179° |
| 2026-05-07 18:56 | 35.03007 | -89.97436 | 333 ft | 17 kts | 179° |
| 2026-05-07 18:57 | 35.02893 | -89.97432 | 333 ft | 16 kts | 178° |
| 2026-05-07 18:57 | 35.02785 | -89.97428 | 332 ft | 15 kts | 178° |
| 2026-05-07 18:57 | 35.02683 | -89.97425 | 332 ft | 14 kts | 179° |
| 2026-05-07 18:57 | 35.02583 | -89.97423 | 331 ft | 15 kts | 179° |
| 2026-05-07 18:58 | 35.02497 | -89.97421 | 333 ft | 10 kts | 179° |
| 2026-05-07 18:58 | 35.02443 | -89.97424 | 333 ft | 3 kts | 198° |
| 2026-05-07 18:58 | 35.02427 | -89.97453 | 330 ft | 7 kts | 244° |
| 2026-05-07 18:58 | 35.02426 | -89.97530 | 328 ft | 8 kts | 296° |
| 2026-05-07 18:59 | 35.02463 | -89.97553 | 329 ft | 5 kts | 349° |
| 2026-05-07 18:59 | 35.02474 | -89.97553 | 330 ft | 0 kts | 356° |
| 2026-05-07 18:59 | 35.02509 | -89.97555 | 330 ft | 15 kts | 358° |
| 2026-05-07 18:59 | 35.02869 | -89.97563 | 330 ft | 93 kts | 359° |
| 2026-05-07 19:00 | 35.03775 | -89.97577 | 361 ft | 159 kts | 356° |
| 2026-05-07 19:00 | 35.04928 | -89.97628 | 1029 ft | 169 kts | 357° |
| 2026-05-07 19:00 | 35.06049 | -89.97694 | 2172 ft | 158 kts | 358° |
| 2026-05-07 19:00 | 35.07181 | -89.97639 | 2943 ft | 173 kts | 17° |
| 2026-05-07 19:01 | 35.08322 | -89.96946 | 3642 ft | 190 kts | 30° |
| 2026-05-07 19:01 | 35.09582 | -89.96047 | 3961 ft | 231 kts | 28° |
| 2026-05-07 19:01 | 35.11045 | -89.95020 | 4482 ft | 252 kts | 28° |
| 2026-05-07 19:01 | 35.12537 | -89.93833 | 5593 ft | 261 kts | 37° |
| 2026-05-07 19:02 | 35.13733 | -89.92091 | 6592 ft | 277 kts | 60° |
| 2026-05-07 19:02 | 35.14253 | -89.89784 | 7422 ft | 293 kts | 82° |
| 2026-05-07 19:02 | 35.14300 | -89.87227 | 8218 ft | 308 kts | 90° |
| 2026-05-07 19:02 | 35.14195 | -89.84584 | 8886 ft | 322 kts | 96° |
| 2026-05-07 19:03 | 35.13754 | -89.81870 | 9567 ft | 330 kts | 106° |
| 2026-05-07 19:03 | 35.13105 | -89.79127 | 10280 ft | 345 kts | 109° |
| 2026-05-07 19:03 | 35.12336 | -89.76196 | 10419 ft | 377 kts | 112° |
| 2026-05-07 19:03 | 35.11314 | -89.73109 | 10555 ft | 404 kts | 116° |
| 2026-05-07 19:04 | 35.10127 | -89.69936 | 11135 ft | 414 kts | 118° |
| 2026-05-07 19:04 | 35.08895 | -89.66741 | 11856 ft | 419 kts | 118° |
| 2026-05-07 19:04 | 35.07642 | -89.63496 | 12593 ft | 424 kts | 118° |
| 2026-05-07 19:04 | 35.06399 | -89.60256 | 13304 ft | 430 kts | 118° |
| 2026-05-07 19:05 | 35.05541 | -89.58010 | 13768 ft | 434 kts | 119° |
| 2026-05-07 19:05 | 35.04265 | -89.54653 | 14414 ft | 439 kts | 119° |
| 2026-05-07 19:05 | 35.02977 | -89.51254 | 15056 ft | 443 kts | 119° |
| 2026-05-07 19:05 | 35.01248 | -89.46688 | 15903 ft | 449 kts | 119° |
| 2026-05-07 19:06 | 35.00358 | -89.44338 | 16357 ft | 452 kts | 119° |
| 2026-05-07 19:06 | 34.97690 | -89.37308 | 17416 ft | 467 kts | 120° |
| 2026-05-07 19:06 | 34.96314 | -89.33690 | 18026 ft | 472 kts | 120° |
| 2026-05-07 19:07 | 34.94924 | -89.30036 | 18603 ft | 477 kts | 121° |
| 2026-05-07 19:07 | 34.93518 | -89.26348 | 19124 ft | 482 kts | 121° |
| 2026-05-07 19:07 | 34.92125 | -89.22658 | 19588 ft | 488 kts | 119° |
| 2026-05-07 19:07 | 34.90967 | -89.18717 | 20074 ft | 498 kts | 111° |
| 2026-05-07 19:08 | 34.90098 | -89.14587 | 20569 ft | 505 kts | 106° |
| 2026-05-07 19:08 | 34.89392 | -89.10368 | 21076 ft | 510 kts | 104° |
| 2026-05-07 19:08 | 34.88748 | -89.06141 | 21576 ft | 515 kts | 104° |
| 2026-05-07 19:08 | 34.88091 | -89.01820 | 22094 ft | 519 kts | 104° |
| 2026-05-07 19:09 | 34.87411 | -88.97485 | 22612 ft | 523 kts | 105° |
| 2026-05-07 19:09 | 34.86709 | -88.93171 | 23121 ft | 527 kts | 105° |
| 2026-05-07 19:09 | 34.85974 | -88.88773 | 23639 ft | 532 kts | 105° |
| 2026-05-07 19:09 | 34.85222 | -88.84342 | 24073 ft | 536 kts | 106° |
| 2026-05-07 19:10 | 34.84458 | -88.79878 | 24482 ft | 541 kts | 106° |
| 2026-05-07 19:10 | 34.83686 | -88.75380 | 24912 ft | 546 kts | 106° |
| 2026-05-07 19:10 | 34.82904 | -88.70831 | 25344 ft | 550 kts | 106° |
| 2026-05-07 19:10 | 34.82118 | -88.66254 | 25784 ft | 555 kts | 106° |
| 2026-05-07 19:11 | 34.81324 | -88.61636 | 26213 ft | 559 kts | 106° |
| 2026-05-07 19:11 | 34.80522 | -88.56979 | 26648 ft | 564 kts | 106° |
| 2026-05-07 19:11 | 34.79712 | -88.52289 | 27077 ft | 568 kts | 107° |
| 2026-05-07 19:11 | 34.78893 | -88.47557 | 27511 ft | 573 kts | 107° |
| 2026-05-07 19:12 | 34.78076 | -88.42852 | 27920 ft | 578 kts | 107° |
| 2026-05-07 19:12 | 34.77240 | -88.38048 | 28357 ft | 582 kts | 107° |
| 2026-05-07 19:12 | 34.76395 | -88.33205 | 28791 ft | 587 kts | 107° |
| 2026-05-07 19:12 | 34.75543 | -88.28328 | 29223 ft | 591 kts | 107° |
| 2026-05-07 19:13 | 34.74678 | -88.23421 | 29666 ft | 595 kts | 108° |
| 2026-05-07 19:13 | 34.73595 | -88.18565 | 29970 ft | 592 kts | 116° |
| 2026-05-07 19:13 | 34.71957 | -88.14008 | 30134 ft | 582 kts | 127° |
| 2026-05-07 19:13 | 34.69818 | -88.09930 | 30395 ft | 563 kts | 137° |
| 2026-05-07 19:14 | 34.67319 | -88.06435 | 30503 ft | 547 kts | 147° |
| 2026-05-07 19:14 | 34.64476 | -88.03449 | 30628 ft | 535 kts | 154° |
| 2026-05-07 19:14 | 34.61531 | -88.00683 | 30738 ft | 534 kts | 154° |
| 2026-05-07 19:14 | 34.58612 | -87.97845 | 30862 ft | 539 kts | 152° |
| 2026-05-07 19:15 | 34.55757 | -87.94833 | 30993 ft | 544 kts | 149° |
| 2026-05-07 19:15 | 34.53015 | -87.91721 | 31124 ft | 547 kts | 148° |
| 2026-05-07 19:15 | 34.50285 | -87.88475 | 31231 ft | 549 kts | 146° |
| 2026-05-07 19:15 | 34.47594 | -87.85201 | 31369 ft | 550 kts | 146° |
| 2026-05-07 19:16 | 34.42191 | -87.78599 | 31571 ft | 551 kts | 146° |
| 2026-05-07 19:16 | 34.39473 | -87.75303 | 31687 ft | 551 kts | 146° |
| 2026-05-07 19:16 | 34.36752 | -87.72020 | 31813 ft | 551 kts | 146° |
| 2026-05-07 19:17 | 34.34029 | -87.68748 | 31914 ft | 552 kts | 146° |
| 2026-05-07 19:17 | 34.31338 | -87.65524 | 32037 ft | 553 kts | 146° |
| 2026-05-07 19:17 | 34.28601 | -87.62247 | 32151 ft | 553 kts | 146° |
| 2026-05-07 19:17 | 34.25871 | -87.58981 | 32278 ft | 553 kts | 146° |
| 2026-05-07 19:18 | 34.23133 | -87.55706 | 32401 ft | 553 kts | 146° |
| 2026-05-07 19:18 | 34.20397 | -87.52436 | 32528 ft | 552 kts | 146° |
| 2026-05-07 19:18 | 34.14967 | -87.45956 | 32744 ft | 552 kts | 146° |
| 2026-05-07 19:19 | 34.12227 | -87.42693 | 32879 ft | 552 kts | 146° |
| 2026-05-07 19:19 | 34.09488 | -87.39446 | 33013 ft | 551 kts | 147° |
| 2026-05-07 19:19 | 34.06753 | -87.36212 | 33145 ft | 551 kts | 147° |
| 2026-05-07 19:19 | 34.04014 | -87.32973 | 33271 ft | 551 kts | 147° |
| 2026-05-07 19:20 | 34.01285 | -87.29742 | 33393 ft | 550 kts | 147° |
| 2026-05-07 19:20 | 33.98556 | -87.26507 | 33566 ft | 548 kts | 147° |
| 2026-05-07 19:20 | 33.95837 | -87.23282 | 33711 ft | 549 kts | 147° |
| 2026-05-07 19:20 | 33.93099 | -87.20042 | 33828 ft | 549 kts | 147° |
| 2026-05-07 19:21 | 33.90415 | -87.16868 | 33978 ft | 544 kts | 147° |
| 2026-05-07 19:21 | 33.87729 | -87.13686 | 34178 ft | 540 kts | 147° |
| 2026-05-07 19:21 | 33.85051 | -87.10524 | 34299 ft | 538 kts | 147° |
| 2026-05-07 19:21 | 33.82376 | -87.07372 | 34404 ft | 537 kts | 147° |
| 2026-05-07 19:22 | 33.79737 | -87.04266 | 34522 ft | 536 kts | 147° |
| 2026-05-07 19:22 | 33.77060 | -87.01120 | 34640 ft | 536 kts | 147° |
| 2026-05-07 19:22 | 33.74394 | -86.98003 | 34760 ft | 533 kts | 148° |
| 2026-05-07 19:22 | 33.71637 | -86.95051 | 34882 ft | 526 kts | 152° |
| 2026-05-07 19:23 | 33.68805 | -86.92288 | 34998 ft | 521 kts | 154° |
| 2026-05-07 19:23 | 33.65942 | -86.89627 | 35121 ft | 519 kts | 155° |
| 2026-05-07 19:23 | 33.60212 | -86.84385 | 35336 ft | 515 kts | 154° |
| 2026-05-07 19:24 | 33.57399 | -86.81791 | 35441 ft | 515 kts | 154° |
| 2026-05-07 19:24 | 33.54562 | -86.79159 | 35573 ft | 515 kts | 154° |
| 2026-05-07 19:24 | 33.51737 | -86.76528 | 35687 ft | 515 kts | 154° |
| 2026-05-07 19:24 | 33.48909 | -86.73889 | 35798 ft | 514 kts | 154° |
| 2026-05-07 19:25 | 33.46091 | -86.71258 | 35926 ft | 514 kts | 154° |
| 2026-05-07 19:25 | 33.43270 | -86.68626 | 36036 ft | 514 kts | 154° |
| 2026-05-07 19:25 | 33.40453 | -86.66001 | 36144 ft | 514 kts | 154° |
| 2026-05-07 19:25 | 33.37630 | -86.63374 | 36274 ft | 513 kts | 154° |
| 2026-05-07 19:26 | 33.31985 | -86.58127 | 36501 ft | 513 kts | 154° |
| 2026-05-07 19:26 | 33.29209 | -86.55551 | 36612 ft | 512 kts | 154° |
| 2026-05-07 19:26 | 33.26397 | -86.52943 | 36748 ft | 512 kts | 154° |
| 2026-05-07 19:27 | 33.23580 | -86.50334 | 36880 ft | 511 kts | 154° |
| 2026-05-07 19:27 | 33.20765 | -86.47728 | 37012 ft | 511 kts | 154° |
| 2026-05-07 19:27 | 33.17952 | -86.45126 | 37142 ft | 511 kts | 154° |
| 2026-05-07 19:27 | 33.15137 | -86.42524 | 37277 ft | 510 kts | 154° |
| 2026-05-07 19:28 | 33.12325 | -86.39928 | 37408 ft | 510 kts | 154° |
| 2026-05-07 19:28 | 33.09520 | -86.37341 | 37492 ft | 510 kts | 154° |
| 2026-05-07 19:28 | 33.06716 | -86.34761 | 37627 ft | 509 kts | 154° |
| 2026-05-07 19:28 | 33.03929 | -86.32207 | 37699 ft | 509 kts | 154° |
| 2026-05-07 19:29 | 33.01104 | -86.29619 | 37835 ft | 509 kts | 154° |
| 2026-05-07 19:29 | 32.98296 | -86.27044 | 37971 ft | 509 kts | 154° |
| 2026-05-07 19:29 | 32.95535 | -86.24511 | 38098 ft | 508 kts | 154° |
| 2026-05-07 19:29 | 32.92692 | -86.21903 | 38237 ft | 508 kts | 154° |
| 2026-05-07 19:30 | 32.89911 | -86.19352 | 38365 ft | 507 kts | 154° |
| 2026-05-07 19:30 | 32.87114 | -86.16786 | 38492 ft | 507 kts | 154° |
| 2026-05-07 19:30 | 32.84320 | -86.14227 | 38624 ft | 506 kts | 154° |
| 2026-05-07 19:30 | 32.81530 | -86.11674 | 38692 ft | 506 kts | 154° |
| 2026-05-07 19:31 | 32.78746 | -86.09126 | 38878 ft | 503 kts | 154° |
| 2026-05-07 19:31 | 32.75971 | -86.06591 | 38957 ft | 504 kts | 154° |
| 2026-05-07 19:31 | 32.70383 | -86.01499 | 38973 ft | 507 kts | 154° |
| 2026-05-07 19:32 | 32.64831 | -85.96443 | 38977 ft | 508 kts | 154° |
| 2026-05-07 19:32 | 32.59222 | -85.91338 | 38978 ft | 508 kts | 154° |
| 2026-05-07 19:33 | 32.53610 | -85.86241 | 38951 ft | 507 kts | 154° |
| 2026-05-07 19:33 | 32.48009 | -85.81161 | 38971 ft | 507 kts | 154° |
| 2026-05-07 19:34 | 32.42429 | -85.76112 | 38973 ft | 506 kts | 154° |
| 2026-05-07 19:34 | 32.36818 | -85.71064 | 38971 ft | 506 kts | 154° |
| 2026-05-07 19:35 | 32.31198 | -85.66012 | 38969 ft | 506 kts | 154° |
| 2026-05-07 19:35 | 32.25585 | -85.60960 | 38944 ft | 506 kts | 153° |
| 2026-05-07 19:36 | 32.20022 | -85.55955 | 38968 ft | 505 kts | 153° |
| 2026-05-07 19:36 | 32.14418 | -85.50922 | 38968 ft | 506 kts | 153° |
| 2026-05-07 19:37 | 32.08814 | -85.45899 | 38966 ft | 506 kts | 153° |
| 2026-05-07 19:37 | 32.03199 | -85.40874 | 38960 ft | 506 kts | 153° |
| 2026-05-07 19:38 | 31.97628 | -85.35895 | 38942 ft | 505 kts | 153° |
| 2026-05-07 19:38 | 31.92017 | -85.30890 | 38969 ft | 506 kts | 153° |
| 2026-05-07 19:39 | 31.86396 | -85.25882 | 38972 ft | 507 kts | 153° |
| 2026-05-07 19:39 | 31.80756 | -85.20865 | 38974 ft | 507 kts | 153° |
| 2026-05-07 19:40 | 31.75161 | -85.15899 | 38976 ft | 507 kts | 153° |
| 2026-05-07 19:40 | 31.69505 | -85.10906 | 38954 ft | 506 kts | 152° |
| 2026-05-07 19:41 | 31.63896 | -85.05954 | 38983 ft | 507 kts | 152° |
| 2026-05-07 19:41 | 31.58345 | -85.00808 | 38985 ft | 514 kts | 144° |
| 2026-05-07 19:42 | 31.55930 | -84.97647 | 38986 ft | 526 kts | 133° |
| 2026-05-07 19:42 | 31.53961 | -84.93975 | 38987 ft | 536 kts | 122° |
| 2026-05-07 19:42 | 31.51475 | -84.85679 | 38992 ft | 547 kts | 108° |
| 2026-05-07 19:43 | 31.49498 | -84.77062 | 38990 ft | 546 kts | 110° |
| 2026-05-07 19:43 | 31.47160 | -84.68610 | 38990 ft | 544 kts | 114° |
| 2026-05-07 19:44 | 31.44607 | -84.60285 | 38992 ft | 543 kts | 114° |
| 2026-05-07 19:44 | 31.42014 | -84.51963 | 38993 ft | 543 kts | 114° |
| 2026-05-07 19:45 | 31.39440 | -84.43651 | 38975 ft | 541 kts | 114° |
| 2026-05-07 19:45 | 31.36889 | -84.35382 | 39002 ft | 539 kts | 114° |
| 2026-05-07 19:46 | 31.34351 | -84.27180 | 38989 ft | 538 kts | 114° |
| 2026-05-07 19:46 | 31.31803 | -84.18969 | 38985 ft | 536 kts | 114° |
| 2026-05-07 19:47 | 31.29265 | -84.10816 | 38993 ft | 535 kts | 114° |
| 2026-05-07 19:47 | 31.26690 | -84.02637 | 38997 ft | 535 kts | 114° |
| 2026-05-07 19:48 | 31.24129 | -83.94501 | 39001 ft | 536 kts | 114° |
| 2026-05-07 19:48 | 31.21565 | -83.86332 | 39001 ft | 534 kts | 114° |
| 2026-05-07 19:49 | 31.19007 | -83.78190 | 38998 ft | 533 kts | 114° |
| 2026-05-07 19:49 | 31.16441 | -83.70048 | 39004 ft | 533 kts | 114° |
| 2026-05-07 19:50 | 31.13890 | -83.61975 | 38998 ft | 533 kts | 114° |
| 2026-05-07 19:50 | 31.11317 | -83.53853 | 38994 ft | 533 kts | 114° |
| 2026-05-07 19:51 | 31.08742 | -83.45743 | 38994 ft | 532 kts | 114° |
| 2026-05-07 19:51 | 31.06159 | -83.37631 | 38976 ft | 532 kts | 113° |
| 2026-05-07 19:52 | 31.03593 | -83.29594 | 38973 ft | 532 kts | 113° |
| 2026-05-07 19:52 | 31.01002 | -83.21496 | 38972 ft | 532 kts | 113° |
| 2026-05-07 19:53 | 30.98833 | -83.14776 | 38965 ft | 532 kts | 113° |
| 2026-05-07 19:53 | 30.96209 | -83.06684 | 38973 ft | 533 kts | 113° |
| 2026-05-07 19:54 | 30.93590 | -82.98581 | 38998 ft | 534 kts | 113° |
| 2026-05-07 19:54 | 30.90957 | -82.90550 | 38998 ft | 532 kts | 116° |
| 2026-05-07 19:55 | 30.87117 | -82.83310 | 39014 ft | 520 kts | 137° |
| 2026-05-07 19:55 | 30.84526 | -82.80430 | 39016 ft | 511 kts | 148° |
| 2026-05-07 19:55 | 30.81664 | -82.78004 | 39016 ft | 506 kts | 153° |
| 2026-05-07 19:56 | 30.75853 | -82.73458 | 39014 ft | 507 kts | 152° |
| 2026-05-07 19:56 | 30.70126 | -82.68590 | 39021 ft | 512 kts | 149° |
| 2026-05-07 19:57 | 30.64474 | -82.63481 | 39023 ft | 514 kts | 148° |
| 2026-05-07 19:57 | 30.58883 | -82.58367 | 39023 ft | 514 kts | 148° |
| 2026-05-07 19:58 | 30.53247 | -82.53236 | 39023 ft | 514 kts | 148° |
| 2026-05-07 19:58 | 30.47594 | -82.48114 | 39027 ft | 514 kts | 148° |
| 2026-05-07 19:59 | 30.41997 | -82.43053 | 39020 ft | 511 kts | 148° |
| 2026-05-07 19:59 | 30.36431 | -82.38025 | 38692 ft | 509 kts | 148° |
| 2026-05-07 20:00 | 30.33619 | -82.35493 | 38365 ft | 512 kts | 148° |
| 2026-05-07 20:00 | 30.30799 | -82.32956 | 37778 ft | 513 kts | 148° |
| 2026-05-07 20:00 | 30.28005 | -82.30440 | 37202 ft | 514 kts | 148° |
| 2026-05-07 20:00 | 30.25167 | -82.27886 | 36628 ft | 516 kts | 148° |
| 2026-05-07 20:01 | 30.22289 | -82.25400 | 36042 ft | 513 kts | 153° |
| 2026-05-07 20:01 | 30.19199 | -82.23414 | 35490 ft | 503 kts | 164° |
| 2026-05-07 20:01 | 30.15960 | -82.22159 | 34916 ft | 492 kts | 175° |
| 2026-05-07 20:01 | 30.12597 | -82.21476 | 34395 ft | 487 kts | 181° |
| 2026-05-07 20:02 | 30.09219 | -82.21021 | 33829 ft | 487 kts | 182° |
| 2026-05-07 20:02 | 30.05875 | -82.20585 | 33240 ft | 489 kts | 181° |
| 2026-05-07 20:02 | 30.02530 | -82.20084 | 32686 ft | 490 kts | 180° |
| 2026-05-07 20:02 | 29.99141 | -82.19503 | 32142 ft | 492 kts | 179° |
| 2026-05-07 20:03 | 29.95751 | -82.18868 | 31575 ft | 493 kts | 179° |
| 2026-05-07 20:03 | 29.92395 | -82.18209 | 30991 ft | 493 kts | 179° |
| 2026-05-07 20:03 | 29.89008 | -82.17528 | 30403 ft | 494 kts | 179° |
| 2026-05-07 20:03 | 29.85617 | -82.16844 | 29725 ft | 494 kts | 178° |
| 2026-05-07 20:04 | 29.82231 | -82.16162 | 29045 ft | 492 kts | 178° |
| 2026-05-07 20:04 | 29.78871 | -82.15484 | 28402 ft | 487 kts | 178° |
| 2026-05-07 20:04 | 29.75582 | -82.14823 | 27777 ft | 483 kts | 178° |
| 2026-05-07 20:04 | 29.72283 | -82.14162 | 27159 ft | 479 kts | 178° |
| 2026-05-07 20:05 | 29.69014 | -82.13510 | 26549 ft | 474 kts | 178° |
| 2026-05-07 20:05 | 29.65769 | -82.12865 | 25946 ft | 470 kts | 178° |
| 2026-05-07 20:05 | 29.62557 | -82.12227 | 25352 ft | 466 kts | 178° |
| 2026-05-07 20:05 | 29.59371 | -82.11595 | 24754 ft | 463 kts | 178° |
| 2026-05-07 20:06 | 29.56215 | -82.10970 | 24160 ft | 458 kts | 177° |
| 2026-05-07 20:06 | 29.53086 | -82.10350 | 23564 ft | 454 kts | 177° |
| 2026-05-07 20:06 | 29.49984 | -82.09735 | 22923 ft | 450 kts | 177° |
| 2026-05-07 20:06 | 29.46923 | -82.09128 | 22308 ft | 446 kts | 177° |
| 2026-05-07 20:07 | 29.43874 | -82.08524 | 21675 ft | 442 kts | 176° |
| 2026-05-07 20:07 | 29.40862 | -82.07927 | 21063 ft | 438 kts | 176° |
| 2026-05-07 20:07 | 29.37906 | -82.07340 | 20607 ft | 433 kts | 176° |
| 2026-05-07 20:07 | 29.34954 | -82.06754 | 20334 ft | 422 kts | 176° |
| 2026-05-07 20:08 | 29.32118 | -82.06173 | 19976 ft | 408 kts | 175° |
| 2026-05-07 20:08 | 29.29392 | -82.05199 | 19408 ft | 412 kts | 162° |
| 2026-05-07 20:08 | 29.26803 | -82.03770 | 18830 ft | 411 kts | 157° |
| 2026-05-07 20:08 | 29.24384 | -82.02220 | 18260 ft | 408 kts | 155° |
| 2026-05-07 20:09 | 29.21944 | -82.00591 | 17621 ft | 404 kts | 154° |
| 2026-05-07 20:09 | 29.19536 | -81.98986 | 17018 ft | 399 kts | 155° |
| 2026-05-07 20:09 | 29.17140 | -81.97413 | 16453 ft | 395 kts | 155° |
| 2026-05-07 20:10 | 29.12401 | -81.94360 | 15328 ft | 387 kts | 155° |
| 2026-05-07 20:10 | 29.10093 | -81.92890 | 14813 ft | 383 kts | 155° |
| 2026-05-07 20:10 | 29.07778 | -81.91403 | 14280 ft | 379 kts | 153° |
| 2026-05-07 20:10 | 29.05630 | -81.89634 | 13755 ft | 381 kts | 144° |
| 2026-05-07 20:11 | 29.03668 | -81.87647 | 13203 ft | 376 kts | 141° |
| 2026-05-07 20:11 | 29.01793 | -81.85600 | 12692 ft | 369 kts | 140° |
| 2026-05-07 20:11 | 28.99974 | -81.83577 | 12254 ft | 361 kts | 140° |
| 2026-05-07 20:11 | 28.98207 | -81.81557 | 11887 ft | 359 kts | 136° |
| 2026-05-07 20:12 | 28.96586 | -81.79380 | 11420 ft | 359 kts | 132° |
| 2026-05-07 20:12 | 28.95063 | -81.77138 | 11014 ft | 354 kts | 130° |
| 2026-05-07 20:12 | 28.93610 | -81.74937 | 10834 ft | 343 kts | 130° |
| 2026-05-07 20:12 | 28.92210 | -81.72808 | 10708 ft | 328 kts | 130° |
| 2026-05-07 20:13 | 28.90868 | -81.70777 | 10529 ft | 315 kts | 130° |
| 2026-05-07 20:13 | 28.89551 | -81.68799 | 10208 ft | 311 kts | 131° |
| 2026-05-07 20:13 | 28.88239 | -81.66839 | 9725 ft | 311 kts | 131° |
| 2026-05-07 20:13 | 28.86918 | -81.64876 | 9190 ft | 311 kts | 130° |
| 2026-05-07 20:14 | 28.85604 | -81.62924 | 8748 ft | 309 kts | 130° |
| 2026-05-07 20:14 | 28.84314 | -81.61006 | 8334 ft | 307 kts | 130° |
| 2026-05-07 20:14 | 28.83002 | -81.59056 | 7957 ft | 303 kts | 130° |
| 2026-05-07 20:14 | 28.81730 | -81.57163 | 7596 ft | 299 kts | 130° |
| 2026-05-07 20:15 | 28.80473 | -81.55296 | 7250 ft | 294 kts | 130° |
| 2026-05-07 20:15 | 28.79270 | -81.53493 | 7096 ft | 283 kts | 128° |
| 2026-05-07 20:15 | 28.78169 | -81.51668 | 6989 ft | 277 kts | 125° |
| 2026-05-07 20:15 | 28.77109 | -81.49816 | 6646 ft | 278 kts | 124° |
| 2026-05-07 20:16 | 28.76071 | -81.47972 | 6338 ft | 274 kts | 123° |
| 2026-05-07 20:16 | 28.75059 | -81.46167 | 6154 ft | 265 kts | 124° |
| 2026-05-07 20:16 | 28.74096 | -81.44433 | 6050 ft | 254 kts | 121° |
| 2026-05-07 20:16 | 28.73430 | -81.42603 | 6000 ft | 250 kts | 105° |
| 2026-05-07 20:17 | 28.73055 | -81.40666 | 6009 ft | 250 kts | 101° |
| 2026-05-07 20:17 | 28.72737 | -81.38715 | 5841 ft | 255 kts | 101° |
| 2026-05-07 20:17 | 28.72421 | -81.36709 | 5447 ft | 258 kts | 101° |
| 2026-05-07 20:17 | 28.72093 | -81.34739 | 5116 ft | 248 kts | 108° |
| 2026-05-07 20:18 | 28.71228 | -81.32991 | 4956 ft | 269 kts | 136° |
| 2026-05-07 20:18 | 28.69671 | -81.31882 | 4578 ft | 265 kts | 168° |
| 2026-05-07 20:18 | 28.67908 | -81.31785 | 4211 ft | 241 kts | 190° |
| 2026-05-07 20:18 | 28.66347 | -81.32052 | 4022 ft | 213 kts | 192° |
| 2026-05-07 20:19 | 28.64977 | -81.32300 | 3993 ft | 187 kts | 192° |
| 2026-05-07 20:19 | 28.63724 | -81.32498 | 3991 ft | 179 kts | 191° |
| 2026-05-07 20:19 | 28.62478 | -81.32668 | 3854 ft | 183 kts | 191° |
| 2026-05-07 20:19 | 28.61199 | -81.32865 | 3361 ft | 187 kts | 190° |
| 2026-05-07 20:20 | 28.59914 | -81.32965 | 3056 ft | 182 kts | 181° |
| 2026-05-07 20:20 | 28.58683 | -81.32781 | 2756 ft | 180 kts | 176° |
| 2026-05-07 20:20 | 28.57444 | -81.32530 | 2444 ft | 176 kts | 175° |
| 2026-05-07 20:20 | 28.56244 | -81.32367 | 2261 ft | 174 kts | 186° |
| 2026-05-07 20:21 | 28.55060 | -81.32450 | 2079 ft | 169 kts | 188° |
| 2026-05-07 20:21 | 28.53921 | -81.32535 | 1829 ft | 156 kts | 188° |
| 2026-05-07 20:21 | 28.52866 | -81.32625 | 1580 ft | 151 kts | 190° |
| 2026-05-07 20:21 | 28.51815 | -81.32725 | 1426 ft | 151 kts | 187° |
| 2026-05-07 20:22 | 28.50774 | -81.32718 | 1250 ft | 149 kts | 186° |
| 2026-05-07 20:22 | 28.49730 | -81.32734 | 1048 ft | 153 kts | 184° |
| 2026-05-07 20:22 | 28.48672 | -81.32733 | 872 ft | 152 kts | 185° |
| 2026-05-07 20:22 | 28.47605 | -81.32706 | 688 ft | 152 kts | 183° |
| 2026-05-07 20:23 | 28.46549 | -81.32692 | 520 ft | 150 kts | 183° |
| 2026-05-07 20:23 | 28.45512 | -81.32692 | 299 ft | 150 kts | 183° |
| 2026-05-07 20:23 | 28.44475 | -81.32688 | 127 ft | 148 kts | 182° |
| 2026-05-07 20:23 | 28.43556 | -81.32686 | 111 ft | 112 kts | 179° |
| 2026-05-07 20:24 | 28.42921 | -81.32678 | 114 ft | 73 kts | 179° |
| 2026-05-07 20:24 | 28.42542 | -81.32673 | 111 ft | 38 kts | 179° |
| 2026-05-07 20:24 | 28.42291 | -81.32670 | 109 ft | 37 kts | 179° |
| 2026-05-07 20:24 | 28.42025 | -81.32668 | 113 ft | 38 kts | 179° |
| 2026-05-07 20:25 | 28.41761 | -81.32665 | 109 ft | 32 kts | 180° |
| 2026-05-07 20:25 | 28.41613 | -81.32667 | 115 ft | 16 kts | 187° |
| 2026-05-07 20:25 | 28.41544 | -81.32722 | 113 ft | 9 kts | 252° |
| 2026-05-07 20:25 | 28.41540 | -81.32790 | 113 ft | 9 kts | 268° |
| 2026-05-07 20:26 | 28.41539 | -81.32861 | 112 ft | 8 kts | 276° |
| 2026-05-07 20:26 | 28.41568 | -81.32897 | 115 ft | 6 kts | 334° |
| 2026-05-07 20:26 | 28.41625 | -81.32907 | 114 ft | 11 kts | 358° |
| 2026-05-07 20:26 | 28.41712 | -81.32911 | 112 ft | 14 kts | 358° |
| 2026-05-07 20:27 | 28.41823 | -81.32913 | 115 ft | 17 kts | 359° |
| 2026-05-07 20:27 | 28.41958 | -81.32916 | 111 ft | 22 kts | 359° |
| 2026-05-07 20:27 | 28.42119 | -81.32920 | 110 ft | 24 kts | 359° |
| 2026-05-07 20:27 | 28.42294 | -81.32925 | 109 ft | 26 kts | 0° |
| 2026-05-07 20:28 | 28.42393 | -81.32922 | 107 ft | 8 kts | 1° |
| 2026-05-07 20:28 | 28.42451 | -81.32921 | 107 ft | 8 kts | 1° |
| 2026-05-07 20:28 | 28.42471 | -81.32929 | 107 ft | 2 kts | 319° |
| 2026-05-07 20:28 | 28.42470 | -81.32951 | 107 ft | 3 kts | 248° |
| 2026-05-07 20:29 | 28.42437 | -81.32956 | 107 ft | 9 kts | 170° |
| 2026-05-07 20:29 | 28.42331 | -81.32936 | 108 ft | 21 kts | 171° |
| 2026-05-07 20:29 | 28.42146 | -81.32917 | 110 ft | 32 kts | 178° |
| 2026-05-07 20:29 | 28.41926 | -81.32912 | 112 ft | 30 kts | 179° |
| 2026-05-07 20:30 | 28.41734 | -81.32909 | 116 ft | 26 kts | 179° |
| 2026-05-07 20:30 | 28.41556 | -81.32908 | 113 ft | 19 kts | 183° |
| 2026-05-07 20:30 | 28.41515 | -81.32933 | 113 ft | 7 kts | 222° |
| 2026-05-07 20:30 | 28.41474 | -81.32980 | 113 ft | 9 kts | 225° |
| 2026-05-07 20:31 | 28.41431 | -81.33030 | 112 ft | 9 kts | 226° |
| 2026-05-07 20:31 | 28.41407 | -81.33094 | 110 ft | 9 kts | 260° |
| 2026-05-07 20:31 | 28.41404 | -81.33167 | 112 ft | 9 kts | 270° |
| 2026-05-07 20:31 | 28.41404 | -81.33238 | 112 ft | 9 kts | 270° |
| 2026-05-07 20:32 | 28.41404 | -81.33305 | 111 ft | 8 kts | 270° |
| 2026-05-07 20:32 | 28.41404 | -81.33367 | 111 ft | 8 kts | 270° |
| 2026-05-07 20:32 | 28.41405 | -81.33411 | 110 ft | 4 kts | 276° |
| 2026-05-07 20:32 | 28.41412 | -81.33421 | 109 ft | 1 kts | 314° |
| 2026-05-07 20:33 | 28.41430 | -81.33424 | 110 ft | 5 kts | 352° |
| 2026-05-07 20:33 | 28.41454 | -81.33426 | 110 ft | 0 kts | 356° |
| 2026-05-07 20:33 | 28.41462 | -81.33427 | 109 ft | 1 kts | 357° |
| 2026-05-07 20:33 | 28.41468 | -81.33427 | 109 ft | 1 kts | 358° |
| 2026-05-07 20:34 | 28.41474 | -81.33427 | 109 ft | 1 kts | 358° |
| 2026-05-07 20:34 | 28.41475 | -81.33427 | 109 ft | 0 kts | 358° |